sensor_id;sensor_type;location;lat;lon;timestamp;pressure;altitude;pressure_sealevel;temperature;humidity
71642;BME280;60657;50.122;14.468;2023-11-19T00:02:27;98532.16480575857;;;4.534599832150761;79.05760280766003
71642;BME280;60657;50.122;14.468;2023-11-19T00:05:43;98516.4158269155;;;4.515907530327304;79.65079728389411
71642;BME280;60657;50.122;14.468;2023-11-19T00:08:59;98513.65144396109;;;4.3636987869077615;79.94834821087969
71642;BME280;60657;50.122;14.468;2023-11-19T00:12:15;98504.20471616334;;;4.2835889219501055;80.27260242618448
71642;BME280;60657;50.122;14.468;2023-11-19T00:15:30;98495.43859143571;;;4.294270237277793;80.43472953383689
71642;BME280;60657;50.122;14.468;2023-11-19T00:18:46;98479.08154425593;;;4.379720759899293;80.56824597543297
71642;BME280;60657;50.122;14.468;2023-11-19T00:22:02;98470.0495942632;;;4.36636911573968;80.61402304112306
71642;BME280;60657;50.122;14.468;2023-11-19T00:25:19;98475.55883954896;;;4.176775768673231;80.76661326009003
71642;BME280;60657;50.122;14.468;2023-11-19T00:28:35;98464.09903983612;;;4.278248264286262;80.90012970168613
71642;BME280;60657;50.122;14.468;2023-11-19T00:31:51;98458.58708346655;;;4.310292210269324;80.76661326009003
71642;BME280;60657;50.122;14.468;2023-11-19T00:35:08;98456.04811791303;;;4.262226291294731;80.8162050812543
71642;BME280;60657;50.122;14.468;2023-11-19T00:38:24;98454.92127088865;;;4.192797741664762;80.62928206301976
71642;BME280;60657;50.122;14.468;2023-11-19T00:41:40;98447.41254861899;;;4.1153582055390245;80.86198214694438
71642;BME280;60657;50.122;14.468;2023-11-19T00:44:56;98439.86705979503;;;4.104676890211337;81.0374608987564
71642;BME280;60657;50.122;14.468;2023-11-19T00:48:12;98435.9173827112;;;4.176775768673231;81.06797894254979
71642;BME280;60657;50.122;14.468;2023-11-19T00:51:28;98416.84235030276;;;4.104676890211337;81.16144045166705
71642;BME280;60657;50.122;14.468;2023-11-19T00:54:44;98418.51050011195;;;4.0512703135729;80.95162890058747
71642;BME280;60657;50.122;14.468;2023-11-19T00:58:00;98423.515045978;;;4.110017547875181;81.12138551918822
71642;BME280;60657;50.122;14.468;2023-11-19T01:01:15;98412.96265152891;;;4.1660944533455435;80.78187228198672
71642;BME280;60657;50.122;14.468;2023-11-19T01:04:33;98405.63624593313;;;4.126039520866712;80.6826886396582
71642;BME280;60657;50.122;14.468;2023-11-19T01:07:50;98409.62673992956;;;4.123369192034794;80.95544365606165
71642;BME280;60657;50.122;14.468;2023-11-19T01:11:06;98425.21975362276;;;4.1367208361943995;80.82764934767681
71642;BME280;60657;50.122;14.468;2023-11-19T01:14:21;98396.283736164;;;4.11802853437095;80.91348134584572
71642;BME280;60657;50.122;14.468;2023-11-19T01:17:37;98387.54001707163;;;4.198138399328606;81.23582818341345
71642;BME280;60657;50.122;14.468;2023-11-19T01:20:53;98385.83718571036;;;4.1660944533455435;80.90966659037156
71642;BME280;60657;50.122;14.468;2023-11-19T01:24:09;98383.37124684954;;;4.080643930724044;80.99359121080339
71642;BME280;60657;50.122;14.468;2023-11-19T01:27:25;98370.27779814052;;;4.1741054398413056;81.00503547722592
71642;BME280;60657;50.122;14.468;2023-11-19T01:30:40;98356.10678786578;;;4.064621957732513;81.12138551918822
71642;BME280;60657;50.122;14.468;2023-11-19T01:33:56;98365.24119761503;;;4.102006561379419;81.45899137865263
71642;BME280;60657;50.122;14.468;2023-11-19T01:37:12;98352.07849663933;;;4.171435111009387;81.06225680933852
71642;BME280;60657;50.122;14.468;2023-11-19T01:40:28;98336.5188067717;;;4.198138399328606;81.15762569619288
71642;BME280;60657;50.122;14.468;2023-11-19T01:43:43;98335.02206440752;;;4.20347905699245;81.04699778744182
71642;BME280;60657;50.122;14.468;2023-11-19T01:46:59;98328.59063325408;;;4.296940566109711;80.9916838330663
71642;BME280;60657;50.122;14.468;2023-11-19T01:50:17;98313.72627812435;;;4.243533989471274;81.0374608987564
71642;BME280;60657;50.122;14.468;2023-11-19T01:53:33;98293.99620414361;;;4.278248264286262;81.1232928969253
71642;BME280;60657;50.122;14.468;2023-11-19T01:56:52;98295.9203163874;;;4.3717097734035235;80.73990997177081
71642;BME280;60657;50.122;14.468;2023-11-19T02:00:11;98304.05686236758;;;4.398413061722742;80.71892881666285
71642;BME280;60657;50.122;14.468;2023-11-19T02:03:29;98310.75315499482;;;4.425116350041961;80.7856870374609
71642;BME280;60657;50.122;14.468;2023-11-19T02:06:46;98311.65040774175;;;4.465171282520792;80.90775921263447
71642;BME280;60657;50.122;14.468;2023-11-19T02:10:07;98302.58364618907;;;4.40909437705043;81.16334782940413
71642;BME280;60657;50.122;14.468;2023-11-19T02:13:23;98275.32205564209;;;4.406424048218511;81.18242160677501
71642;BME280;60657;50.122;14.468;2023-11-19T02:16:40;98265.51792049376;;;4.393072404058898;81.138551918822
71642;BME280;60657;50.122;14.468;2023-11-19T02:19:56;98267.1207535576;;;4.385061417563136;81.20340276188297
71642;BME280;60657;50.122;14.468;2023-11-19T02:23:12;98252.13333433474;;;4.219501029983981;81.48187991149767
71642;BME280;60657;50.122;14.468;2023-11-19T02:26:30;98237.3974402073;;;4.3636987869077615;81.54482337682154
71642;BME280;60657;50.122;14.468;2023-11-19T02:29:54;98239.06237043525;;;4.379720759899293;81.50095368886855
71642;BME280;60657;50.122;14.468;2023-11-19T02:33:10;98244.0572572038;;;4.328984512092774;81.64400701915007
71642;BME280;60657;50.122;14.468;2023-11-19T02:36:26;98239.12406651909;;;4.342336156252387;81.51430533302815
71642;BME280;60657;50.122;14.468;2023-11-19T02:39:42;98239.98723696619;;;4.406424048218511;81.37888151369498
71642;BME280;60657;50.122;14.468;2023-11-19T02:42:58;98242.45390980439;;;4.358358129243918;81.50095368886855
71642;BME280;60657;50.122;14.468;2023-11-19T02:46:13;98245.10383910332;;;4.454489967193105;81.36743724727245
71642;BME280;60657;50.122;14.468;2023-11-19T02:49:29;98237.94106571825;;;4.507896543831542;81.0374608987564
71642;BME280;60657;50.122;14.468;2023-11-19T02:52:45;98210.71202210376;;;4.4892042420080855;81.3445487144274
71642;BME280;60657;50.122;14.468;2023-11-19T02:56:01;98213.09157822128;;;4.478522926680398;81.27969787136645
71642;BME280;60657;50.122;14.468;2023-11-19T02:59:19;98200.12553163191;;;4.4811932555123235;81.04127565423056
71642;BME280;60657;50.122;14.468;2023-11-19T03:02:35;98198.51841687344;;;4.601358052948804;80.89059281300068
71642;BME280;60657;50.122;14.468;2023-11-19T03:05:51;98191.14385395512;;;4.558632791638054;81.18051422903793
71642;BME280;60657;50.122;14.468;2023-11-19T03:09:07;98198.4615405577;;;4.547951476310367;81.31975280384528
71642;BME280;60657;50.122;14.468;2023-11-19T03:12:23;98177.11430182168;;;4.630731670099948;81.1232928969253
71642;BME280;60657;50.122;14.468;2023-11-19T03:15:40;98169.51563452915;;;4.414435034714273;81.3006790264744
71642;BME280;60657;50.122;14.468;2023-11-19T03:18:56;98158.70253742283;;;4.502555886167698;81.17669947356374
71642;BME280;60657;50.122;14.468;2023-11-19T03:22:11;98156.17882122785;;;4.36636911573968;81.72602426184481
71642;BME280;60657;50.122;14.468;2023-11-19T03:25:27;98155.97712691266;;;4.358358129243918;81.66689555199511
71642;BME280;60657;50.122;14.468;2023-11-19T03:28:43;98137.79487583424;;;4.240863660639356;82.47180895704585
71642;BME280;60657;50.122;14.468;2023-11-19T03:31:59;98138.56850898745;;;4.336995498588543;81.92629892423895
71642;BME280;60657;50.122;14.468;2023-11-19T03:35:15;98132.14575049195;;;4.417105363546199;81.85000381475547
71642;BME280;60657;50.122;14.468;2023-11-19T03:38:33;98141.43473616352;;;4.451819638361179;81.74700541695277
71642;BME280;60657;50.122;14.468;2023-11-19T03:41:48;98134.92131486133;;;4.502555886167698;81.84237430380712
71642;BME280;60657;50.122;14.468;2023-11-19T03:45:05;98111.19083829765;;;4.571984435797667;81.88052185854886
71642;BME280;60657;50.122;14.468;2023-11-19T03:48:21;98113.7380297431;;;4.609369039444573;81.62684061951629
71642;BME280;60657;50.122;14.468;2023-11-19T03:51:37;98109.42056621327;;;4.555962462806136;81.50095368886855
71642;BME280;60657;50.122;14.468;2023-11-19T03:54:53;98103.70924202063;;;4.529259174486917;81.71076523994812
71642;BME280;60657;50.122;14.468;2023-11-19T03:58:08;98105.98614900878;;;4.499885557335773;81.99496452277408
71642;BME280;60657;50.122;14.468;2023-11-19T04:01:24;98100.38419194784;;;4.473182269016554;82.01976043335623
71642;BME280;60657;50.122;14.468;2023-11-19T04:04:40;98097.03229070164;;;4.369039444571605;82.18188754100862
71642;BME280;60657;50.122;14.468;2023-11-19T04:07:56;98102.71558283956;;;4.4304570077058045;82.40123598077363
71642;BME280;60657;50.122;14.468;2023-11-19T04:11:12;98088.10253706502;;;4.542610818646523;82.21812771801328
71642;BME280;60657;50.122;14.468;2023-11-19T04:14:28;98078.88047510288;;;4.515907530327304;82.24483100633249
71642;BME280;60657;50.122;14.468;2023-11-19T04:17:43;98067.45725256574;;;4.470511940184636;82.30014496070802
71642;BME280;60657;50.122;14.468;2023-11-19T04:20:59;98068.23575560223;;;4.467841611352711;82.51186388952468
71642;BME280;60657;50.122;14.468;2023-11-19T04:24:17;98056.73309878084;;;4.358358129243918;82.52140077821012
71642;BME280;60657;50.122;14.468;2023-11-19T04:27:33;98042.73784463824;;;4.40909437705043;82.9810788128481
71642;BME280;60657;50.122;14.468;2023-11-19T04:30:49;98049.28104167183;;;4.379720759899293;83.1145952544442
71642;BME280;60657;50.122;14.468;2023-11-19T04:34:04;98028.71754108537;;;4.331654840924699;83.1565575646601
71642;BME280;60657;50.122;14.468;2023-11-19T04:37:21;98034.3520469705;;;4.34767681391623;83.25574120698863
71642;BME280;60657;50.122;14.468;2023-11-19T04:40:37;98030.19811720354;;;4.262226291294731;83.57236591134509
71642;BME280;60657;50.122;14.468;2023-11-19T04:43:52;98021.00722595668;;;4.072632944228275;83.9385824368658
71642;BME280;60657;50.122;14.468;2023-11-19T04:47:09;98010.23428280638;;;4.278248264286262;83.93286030365454
71642;BME280;60657;50.122;14.468;2023-11-19T04:50:24;97999.69664206299;;;4.320973525597012;84.0701915007248
71642;BME280;60657;50.122;14.468;2023-11-19T04:53:40;98007.27356836604;;;4.353017471580074;84.07591363393607
71642;BME280;60657;50.122;14.468;2023-11-19T04:56:56;97978.4826740909;;;4.401083390554668;84.09689478904403
71642;BME280;60657;50.122;14.468;2023-11-19T05:00:13;97963.5868463805;;;4.336995498588543;84.33722438391699
71642;BME280;60657;50.122;14.468;2023-11-19T05:03:29;97969.32452294344;;;4.339665827420461;84.51842526894026
71642;BME280;60657;50.122;14.468;2023-11-19T05:06:45;97954.52824508876;;;4.339665827420461;84.6748302433814
71642;BME280;60657;50.122;14.468;2023-11-19T05:10:01;97951.9638796096;;;4.246204318303199;84.78164339665827
71642;BME280;60657;50.122;14.468;2023-11-19T05:13:17;97950.4019115529;;;4.286259250782024;84.71679255359732
71642;BME280;60657;50.122;14.468;2023-11-19T05:16:33;97941.39215172529;;;4.355687800411992;84.62523842221714
71642;BME280;60657;50.122;14.468;2023-11-19T05:19:48;97952.23108710922;;;4.446478980697336;84.54322117952239
71642;BME280;60657;50.122;14.468;2023-11-19T05:23:04;97945.566519626;;;4.278248264286262;84.644312199588
71642;BME280;60657;50.122;14.468;2023-11-19T05:26:20;97960.29054306506;;;4.23819333180743;85.16311894407569
71642;BME280;60657;50.122;14.468;2023-11-19T05:29:37;97945.70893167246;;;4.427786678873886;84.47455558098726
71642;BME280;60657;50.122;14.468;2023-11-19T05:32:53;97939.0688894212;;;4.296940566109711;84.50507362478065
71642;BME280;60657;50.122;14.468;2023-11-19T05:36:10;97920.95099038472;;;4.278248264286262;84.62142366674296
71642;BME280;60657;50.122;14.468;2023-11-19T05:39:27;97915.23462529332;;;4.34767681391623;84.65575646601053
71642;BME280;60657;50.122;14.468;2023-11-19T05:42:43;97908.71051072974;;;4.411764705882355;84.69390402075227
71642;BME280;60657;50.122;14.468;2023-11-19T05:45:59;97906.91382417563;;;4.272907606622418;84.688181887541
71642;BME280;60657;50.122;14.468;2023-11-19T05:49:17;97893.77621725776;;;4.28091859311818;85.02388036926833
71642;BME280;60657;50.122;14.468;2023-11-19T05:52:33;97893.79893406724;;;4.278248264286262;85.20126649881743
71642;BME280;60657;50.122;14.468;2023-11-19T05:55:48;97902.81123978605;;;4.315632867933168;85.24513618677042
71642;BME280;60657;50.122;14.468;2023-11-19T05:59:04;97893.77621725776;;;4.34767681391623;85.32524605172809
71642;BME280;60657;50.122;14.468;2023-11-19T06:02:20;97892.20736641769;;;4.427786678873886;85.45494773785
71642;BME280;60657;50.122;14.468;2023-11-19T06:05:36;97881.51235539843;;;4.342336156252387;85.57129777981231
71642;BME280;60657;50.122;14.468;2023-11-19T06:08:52;97882.25237778218;;;4.3717097734035235;85.71625848783093
71642;BME280;60657;50.122;14.468;2023-11-19T06:12:08;97883.12683832798;;;4.419775692378117;85.71053635461966
71642;BME280;60657;50.122;14.468;2023-11-19T06:15:24;97869.98810806379;;;4.454489967193105;85.96612497138933
71642;BME280;60657;50.122;14.468;2023-11-19T06:18:40;97870.8613621586;;;4.446478980697336;85.74677653162432
71642;BME280;60657;50.122;14.468;2023-11-19T06:21:55;97884.87467833386;;;4.3717097734035235;86.01953154802777
71642;BME280;60657;50.122;14.468;2023-11-19T06:25:11;97886.51168473958;;;4.382391088731211;86.01190203707942
71642;BME280;60657;50.122;14.468;2023-11-19T06:28:30;97857.76414760618;;;4.454489967193105;86.19691767757686
71642;BME280;60657;50.122;14.468;2023-11-19T06:31:46;97847.96065245212;;;4.4892042420080855;86.22362096589609
71642;BME280;60657;50.122;14.468;2023-11-19T06:35:01;97858.5721136278;;;4.443808651865417;86.56694895857176
71642;BME280;60657;50.122;14.468;2023-11-19T06:38:18;97868.56641903042;;;4.590676737621116;86.25604638742657
71642;BME280;60657;50.122;14.468;2023-11-19T06:41:33;97864.4408977222;;;4.534599832150761;86.30182345311665
71642;BME280;60657;50.122;14.468;2023-11-19T06:44:49;97859.59030538601;;;4.588006408789198;86.2503242542153
71642;BME280;60657;50.122;14.468;2023-11-19T06:48:05;97858.8833124916;;;4.6574349584191665;86.13778896772718
71642;BME280;60657;50.122;14.468;2023-11-19T06:51:21;97872.89935503626;;;4.689478904402229;86.27893492027161
71642;BME280;60657;50.122;14.468;2023-11-19T06:54:37;97869.58226255624;;;4.660105287251085;86.31708247501335
71642;BME280;60657;50.122;14.468;2023-11-19T06:57:54;97849.96056054666;;;4.716182192721448;86.2369726100557
71642;BME280;60657;50.122;14.468;2023-11-19T07:01:10;97855.58673762309;;;4.571984435797667;86.26176852063783
71642;BME280;60657;50.122;14.468;2023-11-19T07:04:26;97859.69233762541;;;4.577325093461511;86.6775768673228
71642;BME280;60657;50.122;14.468;2023-11-19T07:07:44;97851.5405426158;;;4.668116273746854;86.72526131074999
71642;BME280;60657;50.122;14.468;2023-11-19T07:10:59;97850.03743223989;;;4.822995345998322;86.57839322499427
71642;BME280;60657;50.122;14.468;2023-11-19T07:14:17;97851.73338777212;;;4.8844129091325215;86.36476691844052
71642;BME280;60657;50.122;14.468;2023-11-19T07:17:33;97852.52451495796;;;4.798962386511022;86.19691767757686
71642;BME280;60657;50.122;14.468;2023-11-19T07:20:49;97867.4098386494;;;4.897764553292134;85.92607003891051
71642;BME280;60657;50.122;14.468;2023-11-19T07:24:05;97862.45423375766;;;4.879072251468678;86.03479056992447
71642;BME280;60657;50.122;14.468;2023-11-19T07:27:22;97846.04245817012;;;4.959182116426334;86.2674906538491
71642;BME280;60657;50.122;14.468;2023-11-19T07:30:38;97846.83439004407;;;4.895094224460209;86.133974212253
71642;BME280;60657;50.122;14.468;2023-11-19T07:33:53;97848.41736723817;;;4.83367666132601;86.18547341115435
71642;BME280;60657;50.122;14.468;2023-11-19T07:37:09;97834.4930026653;;;4.86839093614099;86.44487678339819
71642;BME280;60657;50.122;14.468;2023-11-19T07:40:25;97842.79992595011;;;4.929808499275197;86.31898985275043
71642;BME280;60657;50.122;14.468;2023-11-19T07:43:42;97846.06084468214;;;4.857709620813303;86.40672922865645
71642;BME280;60657;50.122;14.468;2023-11-19T07:46:59;97841.19622098599;;;4.93514915693904;86.40291447318226
71642;BME280;60657;50.122;14.468;2023-11-19T07:50:15;97851.0889935675;;;4.988555733577478;86.36285954070344
71642;BME280;60657;50.122;14.468;2023-11-19T07:53:31;97851.1781836678;;;5.068665598535134;86.25986114290075
71642;BME280;60657;50.122;14.468;2023-11-19T07:56:46;97853.6824209998;;;5.009918364232853;86.21408407721066
71642;BME280;60657;50.122;14.468;2023-11-19T08:00:05;97846.2401362918;;;5.0232700083924655;85.9546807049668
71642;BME280;60657;50.122;14.468;2023-11-19T08:03:22;97833.92933090261;;;5.095368886854352;86.16639963378347
71642;BME280;60657;50.122;14.468;2023-11-19T08:06:38;97854.59784049269;;;5.14877546349279;85.91653315022506
71642;BME280;60657;50.122;14.468;2023-11-19T08:09:54;97847.15546816106;;;5.132753490501258;85.94323643854429
71642;BME280;60657;50.122;14.468;2023-11-19T08:13:10;97846.41110823129;;;5.186160067139696;85.82497901884489
71642;BME280;60657;50.122;14.468;2023-11-19T08:16:25;97843.16228180028;;;5.29297322041657;85.74105439841306
71642;BME280;60657;50.122;14.468;2023-11-19T08:19:41;97831.7214935112;;;5.317006179903871;85.56557564660105
71642;BME280;60657;50.122;14.468;2023-11-19T08:22:57;97830.845527767;;;5.268940260929277;85.90127412832837
71642;BME280;60657;50.122;14.468;2023-11-19T08:26:14;97816.08800000536;;;5.399786373693445;86.09010452429999
71642;BME280;60657;50.122;14.468;2023-11-19T08:29:30;97806.28165980584;;;5.4558632791638075;86.1187151903563
71642;BME280;60657;50.122;14.468;2023-11-19T08:32:48;97809.62391298481;;;5.4558632791638075;85.93560692759594
71642;BME280;60657;50.122;14.468;2023-11-19T08:36:06;97808.01012502435;;;5.48790722514687;86.0881971465629
71642;BME280;60657;50.122;14.468;2023-11-19T08:39:23;97792.39885552977;;;5.581368734264132;86.14351110093843
71642;BME280;60657;50.122;14.468;2023-11-19T08:42:39;97804.78064489471;;;5.589379720759901;86.31326771953918
71642;BME280;60657;50.122;14.468;2023-11-19T08:45:55;97822.94774928495;;;5.624093995574881;86.15495536736096
71642;BME280;60657;50.122;14.468;2023-11-19T08:49:11;97818.9407289804;;;5.722896162355994;86.00236514839399
71642;BME280;60657;50.122;14.468;2023-11-19T08:52:26;97818.92764149848;;;5.757610437170975;85.67429617761502
71642;BME280;60657;50.122;14.468;2023-11-19T08:55:42;97810.74841801751;;;5.853742275120162;85.7353322652018
71642;BME280;60657;50.122;14.468;2023-11-19T08:58:58;97810.05331440894;;;5.955214770733193;85.55031662470435
71642;BME280;60657;50.122;14.468;2023-11-19T09:02:14;97812.51407490039;;;5.896467536430912;85.10589761196307
71642;BME280;60657;50.122;14.468;2023-11-19T09:05:30;97815.03318462061;;;6.011291676203555;85.31189440756847
71642;BME280;60657;50.122;14.468;2023-11-19T09:08:46;97815.90654465285;;;6.067368581673918;85.12306401159685
71642;BME280;60657;50.122;14.468;2023-11-19T09:12:02;97808.50956985832;;;6.115434500648512;85.24704356450752
71642;BME280;60657;50.122;14.468;2023-11-19T09:15:18;97810.22876560883;;;6.264972915236136;85.18600747692074
71642;BME280;60657;50.122;14.468;2023-11-19T09:18:34;97810.32754847797;;;6.419851987487604;85.03532463569086
71642;BME280;60657;50.122;14.468;2023-11-19T09:21:50;97795.55370281512;;;6.537346456092166;85.09826810101472
71642;BME280;60657;50.122;14.468;2023-11-19T09:25:06;97800.5524712608;;;6.588082703898678;85.18600747692074
71642;BME280;60657;50.122;14.468;2023-11-19T09:28:22;97800.58401439997;;;6.66285191119249;85.01815823605708
71642;BME280;60657;50.122;14.468;2023-11-19T09:31:38;97796.50550683455;;;6.799038681620509;84.99526970321202
71642;BME280;60657;50.122;14.468;2023-11-19T09:34:54;97775.93696377371;;;6.903181506065458;84.71297779812313
71642;BME280;60657;50.122;14.468;2023-11-19T09:38:10;97787.54091978817;;;7.047379262989246;84.60425726710918
71642;BME280;60657;50.122;14.468;2023-11-19T09:41:26;97763.6614169368;;;7.218280308232245;84.39253833829251
71642;BME280;60657;50.122;14.468;2023-11-19T09:44:42;97784.32968082157;;;7.295719844357976;84.15602349889372
71642;BME280;60657;50.122;14.468;2023-11-19T09:47:58;97788.48444674714;;;7.431906614785994;83.9691004806592
71642;BME280;60657;50.122;14.468;2023-11-19T09:51:17;97788.50320624182;;;7.562752727550162;83.51895933470665
71642;BME280;60657;50.122;14.468;2023-11-19T09:54:34;97769.5070228796;;;7.634851606012056;83.56473640039674
71642;BME280;60657;50.122;14.468;2023-11-19T09:57:52;97765.37135067512;;;7.594796673533224;83.54757000076295
71642;BME280;60657;50.122;14.468;2023-11-19T10:01:08;97768.68339064055;;;7.589456015869381;83.78789959563592
71642;BME280;60657;50.122;14.468;2023-11-19T10:04:24;97760.42666737172;;;7.658884565499349;83.84321355001144
71642;BME280;60657;50.122;14.468;2023-11-19T10:07:45;97758.7704153931;;;8.02204928664073;83.74975204089418
71642;BME280;60657;50.122;14.468;2023-11-19T10:11:01;97762.88295480867;;;8.249027237354085;83.3358510719463
71642;BME280;60657;50.122;14.468;2023-11-19T10:14:17;97758.6881946774;;;8.540093080033571;82.90478370336461
71642;BME280;60657;50.122;14.468;2023-11-19T10:17:38;97750.31116770153;;;8.855191882200351;82.03883421072709
71642;BME280;60657;50.122;14.468;2023-11-19T10:20:54;97741.92775014935;;;9.020752269779507;81.61158159761959
71642;BME280;60657;50.122;14.468;2023-11-19T10:24:10;97746.83613978943;;;9.245059891660944;81.37125200274663
71642;BME280;60657;50.122;14.468;2023-11-19T10:27:26;97721.12642783712;;;9.314488441290912;81.43801022354467
71642;BME280;60657;50.122;14.468;2023-11-19T10:30:42;97721.8494964011;;;9.461356527046618;81.2854200045777
71642;BME280;60657;50.122;14.468;2023-11-19T10:33:58;97715.98128361264;;;9.562829022659649;81.5238422217136
71642;BME280;60657;50.122;14.468;2023-11-19T10:37:27;97710.23552901199;;;9.42664225223163;81.79850461585413
71642;BME280;60657;50.122;14.468;2023-11-19T10:40:43;97708.46833556054;;;9.642938887617305;81.80994888227664
71642;BME280;60657;50.122;14.468;2023-11-19T10:43:59;97701.7170622099;;;9.80849927519646;81.62111848630502
71642;BME280;60657;50.122;14.468;2023-11-19T10:47:15;97707.47989775504;;;9.813839932860304;81.80613412680248
71642;BME280;60657;50.122;14.468;2023-11-19T10:50:35;97698.3431197447;;;9.848554207675285;81.85763332570382
71642;BME280;60657;50.122;14.468;2023-11-19T10:53:52;97704.87828995354;;;10.006103608758679;82.21812771801328
71642;BME280;60657;50.122;14.468;2023-11-19T10:57:20;97708.94969881183;;;10.035477225909823;82.32303349355307
71642;BME280;60657;50.122;14.468;2023-11-19T11:00:38;97702.97946815772;;;10.289158464942396;82.35736629282063
71642;BME280;60657;50.122;14.468;2023-11-19T11:03:59;97696.0248960647;;;10.59090562294957;81.74700541695277
71642;BME280;60657;50.122;14.468;2023-11-19T11:07:17;97689.06528619064;;;10.793850614175632;81.22438391699092
71642;BME280;60657;50.122;14.468;2023-11-19T11:10:39;97685.60108443335;;;10.9487296864271;80.66552224002442
71642;BME280;60657;50.122;14.468;2023-11-19T11:14:12;97665.64740106525;;;11.552224002441442;78.89547570000762
71642;BME280;60657;50.122;14.468;2023-11-19T11:17:29;97666.0166206856;;;12.355992980849926;77.04913405050736
71642;BME280;60657;50.122;14.468;2023-11-19T11:20:49;97669.88355484519;;;12.492179751277945;76.3071641107805
71642;BME280;60657;50.122;14.468;2023-11-19T11:24:14;97652.14758199076;;;13.480201419089035;74.44937819485772
71642;BME280;60657;50.122;14.468;2023-11-19T11:27:49;97648.43793725813;;;14.318684672312507;72.04226749065386
71642;BME280;60657;50.122;14.468;2023-11-19T11:31:23;97644.52381003032;;;14.745937285420005;68.67765316243229
71642;BME280;60657;50.122;14.468;2023-11-19T11:34:56;97647.2032247817;;;15.31204699778744;66.68062867170214
71642;BME280;60657;50.122;14.468;2023-11-19T11:38:29;97646.93330085905;;;15.309376668955522;65.35881589990082
71642;BME280;60657;50.122;14.468;2023-11-19T11:42:18;97665.47996802599;;;14.721904325932705;66.35446707866026
71642;BME280;60657;50.122;14.468;2023-11-19T11:45:46;97660.29470593442;;;14.227893492027164;67.63622491798276
71642;BME280;60657;50.122;14.468;2023-11-19T11:49:03;97647.60221776647;;;14.908827344167236;66.84084840161745
71642;BME280;60657;50.122;14.468;2023-11-19T11:52:20;97624.53392117762;;;15.613794155794615;65.36263065537499
71642;BME280;60657;50.122;14.468;2023-11-19T11:55:36;97629.6452118879;;;16.28137636377508;62.207827878233005
71642;BME280;60657;50.122;14.468;2023-11-19T11:59:07;97626.82109728105;;;16.86083772030213;60.941329060807206